sensor_id;sensor_type;location;lat;lon;timestamp;P1;durP1;ratioP1;P2;durP2;ratioP2
22916;SDS011;11624;53.250;7.456;2023-11-21T00:00:07;20.63;;;3.78;;
22916;SDS011;11624;53.250;7.456;2023-11-21T00:02:40;14.32;;;3.47;;
22916;SDS011;11624;53.250;7.456;2023-11-21T00:05:09;21.85;;;3.95;;
22916;SDS011;11624;53.250;7.456;2023-11-21T00:07:39;15.15;;;3.75;;
22916;SDS011;11624;53.250;7.456;2023-11-21T00:10:10;16.52;;;3.30;;
22916;SDS011;11624;53.250;7.456;2023-11-21T00:12:41;21.27;;;4.25;;
22916;SDS011;11624;53.250;7.456;2023-11-21T00:15:10;15.45;;;3.67;;
22916;SDS011;11624;53.250;7.456;2023-11-21T00:17:39;16.67;;;4.63;;
22916;SDS011;11624;53.250;7.456;2023-11-21T00:20:07;16.75;;;3.70;;
22916;SDS011;11624;53.250;7.456;2023-11-21T00:22:40;14.40;;;3.55;;
22916;SDS011;11624;53.250;7.456;2023-11-21T00:25:10;20.25;;;4.03;;
22916;SDS011;11624;53.250;7.456;2023-11-21T00:27:39;15.32;;;4.07;;
22916;SDS011;11624;53.250;7.456;2023-11-21T00:30:07;15.40;;;3.70;;
22916;SDS011;11624;53.250;7.456;2023-11-21T00:32:36;19.50;;;4.65;;
22916;SDS011;11624;53.250;7.456;2023-11-21T00:35:06;14.73;;;4.18;;
22916;SDS011;11624;53.250;7.456;2023-11-21T00:37:34;18.58;;;3.97;;
22916;SDS011;11624;53.250;7.456;2023-11-21T00:40:05;19.15;;;3.97;;
22916;SDS011;11624;53.250;7.456;2023-11-21T00:42:37;16.80;;;4.10;;
22916;SDS011;11624;53.250;7.456;2023-11-21T00:45:06;18.10;;;4.40;;
22916;SDS011;11624;53.250;7.456;2023-11-21T00:47:35;19.00;;;4.18;;
22916;SDS011;11624;53.250;7.456;2023-11-21T00:50:04;20.63;;;4.97;;
22916;SDS011;11624;53.250;7.456;2023-11-21T00:52:34;15.15;;;4.40;;
22916;SDS011;11624;53.250;7.456;2023-11-21T00:55:03;18.67;;;4.68;;
22916;SDS011;11624;53.250;7.456;2023-11-21T00:57:31;17.02;;;4.20;;
22916;SDS011;11624;53.250;7.456;2023-11-21T01:00:01;18.10;;;5.47;;
22916;SDS011;11624;53.250;7.456;2023-11-21T01:02:34;19.83;;;5.00;;
22916;SDS011;11624;53.250;7.456;2023-11-21T01:05:03;21.58;;;4.95;;
22916;SDS011;11624;53.250;7.456;2023-11-21T01:07:34;23.88;;;5.75;;
22916;SDS011;11624;53.250;7.456;2023-11-21T01:10:03;23.63;;;5.60;;
22916;SDS011;11624;53.250;7.456;2023-11-21T01:12:34;20.38;;;5.40;;
22916;SDS011;11624;53.250;7.456;2023-11-21T01:15:05;24.63;;;5.57;;
22916;SDS011;11624;53.250;7.456;2023-11-21T01:17:35;23.65;;;6.20;;
22916;SDS011;11624;53.250;7.456;2023-11-21T01:20:04;23.77;;;6.25;;
22916;SDS011;11624;53.250;7.456;2023-11-21T01:22:39;21.40;;;6.45;;
22916;SDS011;11624;53.250;7.456;2023-11-21T01:25:08;18.55;;;6.30;;
22916;SDS011;11624;53.250;7.456;2023-11-21T01:27:37;22.75;;;6.60;;
22916;SDS011;11624;53.250;7.456;2023-11-21T01:30:07;25.27;;;7.38;;
22916;SDS011;11624;53.250;7.456;2023-11-21T01:32:37;28.38;;;7.50;;
22916;SDS011;11624;53.250;7.456;2023-11-21T01:35:07;23.85;;;6.63;;
22916;SDS011;11624;53.250;7.456;2023-11-21T01:37:36;25.80;;;7.65;;
22916;SDS011;11624;53.250;7.456;2023-11-21T01:40:06;19.05;;;5.88;;
22916;SDS011;11624;53.250;7.456;2023-11-21T01:42:40;22.13;;;6.75;;
22916;SDS011;11624;53.250;7.456;2023-11-21T01:45:11;24.60;;;6.53;;
22916;SDS011;11624;53.250;7.456;2023-11-21T01:47:40;21.08;;;6.70;;
22916;SDS011;11624;53.250;7.456;2023-11-21T01:50:12;22.77;;;7.20;;
22916;SDS011;11624;53.250;7.456;2023-11-21T01:52:43;21.80;;;7.80;;
22916;SDS011;11624;53.250;7.456;2023-11-21T01:55:14;23.95;;;7.45;;
22916;SDS011;11624;53.250;7.456;2023-11-21T01:57:54;25.85;;;8.63;;
22916;SDS011;11624;53.250;7.456;2023-11-21T02:00:25;23.95;;;7.10;;
22916;SDS011;11624;53.250;7.456;2023-11-21T02:02:56;27.55;;;7.35;;
22916;SDS011;11624;53.250;7.456;2023-11-21T02:05:25;25.85;;;7.40;;
22916;SDS011;11624;53.250;7.456;2023-11-21T02:07:54;24.45;;;7.30;;
22916;SDS011;11624;53.250;7.456;2023-11-21T02:10:23;21.20;;;7.13;;
22916;SDS011;11624;53.250;7.456;2023-11-21T02:12:52;21.10;;;6.82;;
22916;SDS011;11624;53.250;7.456;2023-11-21T02:15:20;34.97;;;7.95;;
22916;SDS011;11624;53.250;7.456;2023-11-21T02:17:54;22.55;;;6.78;;
22916;SDS011;11624;53.250;7.456;2023-11-21T02:20:26;24.58;;;6.82;;
22916;SDS011;11624;53.250;7.456;2023-11-21T02:22:57;23.65;;;7.38;;
22916;SDS011;11624;53.250;7.456;2023-11-21T02:25:27;27.65;;;7.82;;
22916;SDS011;11624;53.250;7.456;2023-11-21T02:27:57;21.10;;;7.35;;
22916;SDS011;11624;53.250;7.456;2023-11-21T02:30:26;25.20;;;7.30;;
22916;SDS011;11624;53.250;7.456;2023-11-21T02:32:55;26.05;;;7.22;;
22916;SDS011;11624;53.250;7.456;2023-11-21T02:35:25;26.10;;;7.85;;
22916;SDS011;11624;53.250;7.456;2023-11-21T02:37:54;21.77;;;6.63;;
22916;SDS011;11624;53.250;7.456;2023-11-21T02:40:25;32.65;;;7.15;;
22916;SDS011;11624;53.250;7.456;2023-11-21T02:42:54;26.67;;;7.63;;
22916;SDS011;11624;53.250;7.456;2023-11-21T02:45:26;23.48;;;7.25;;
22916;SDS011;11624;53.250;7.456;2023-11-21T02:47:54;28.73;;;7.93;;
22916;SDS011;11624;53.250;7.456;2023-11-21T02:50:25;28.60;;;8.50;;
22916;SDS011;11624;53.250;7.456;2023-11-21T02:52:53;22.30;;;7.45;;
22916;SDS011;11624;53.250;7.456;2023-11-21T02:55:26;27.83;;;7.97;;
22916;SDS011;11624;53.250;7.456;2023-11-21T02:57:54;26.40;;;7.55;;
22916;SDS011;11624;53.250;7.456;2023-11-21T03:00:24;28.42;;;7.90;;
22916;SDS011;11624;53.250;7.456;2023-11-21T03:02:53;27.52;;;7.43;;
22916;SDS011;11624;53.250;7.456;2023-11-21T03:05:25;30.42;;;7.00;;
22916;SDS011;11624;53.250;7.456;2023-11-21T03:07:53;22.55;;;6.88;;
22916;SDS011;11624;53.250;7.456;2023-11-21T03:10:22;24.15;;;6.35;;
22916;SDS011;11624;53.250;7.456;2023-11-21T03:12:51;30.08;;;7.40;;
22916;SDS011;11624;53.250;7.456;2023-11-21T03:15:20;27.63;;;6.35;;
22916;SDS011;11624;53.250;7.456;2023-11-21T03:17:48;27.42;;;8.13;;
22916;SDS011;11624;53.250;7.456;2023-11-21T03:20:17;34.10;;;7.30;;
22916;SDS011;11624;53.250;7.456;2023-11-21T03:22:45;18.67;;;6.82;;
22916;SDS011;11624;53.250;7.456;2023-11-21T03:25:14;26.80;;;7.20;;
22916;SDS011;11624;53.250;7.456;2023-11-21T03:27:44;23.75;;;7.50;;
22916;SDS011;11624;53.250;7.456;2023-11-21T03:30:14;23.02;;;6.80;;
22916;SDS011;11624;53.250;7.456;2023-11-21T03:32:43;23.75;;;7.05;;
22916;SDS011;11624;53.250;7.456;2023-11-21T03:35:13;23.42;;;7.85;;
22916;SDS011;11624;53.250;7.456;2023-11-21T03:37:42;35.05;;;8.30;;
22916;SDS011;11624;53.250;7.456;2023-11-21T03:40:11;32.03;;;7.20;;
22916;SDS011;11624;53.250;7.456;2023-11-21T03:42:40;26.60;;;7.38;;
22916;SDS011;11624;53.250;7.456;2023-11-21T03:45:09;30.38;;;7.57;;
22916;SDS011;11624;53.250;7.456;2023-11-21T03:47:41;31.70;;;7.55;;
22916;SDS011;11624;53.250;7.456;2023-11-21T03:50:10;25.67;;;7.28;;
22916;SDS011;11624;53.250;7.456;2023-11-21T03:52:38;29.00;;;7.60;;
22916;SDS011;11624;53.250;7.456;2023-11-21T03:55:07;21.70;;;6.93;;
22916;SDS011;11624;53.250;7.456;2023-11-21T03:57:39;26.20;;;7.35;;
22916;SDS011;11624;53.250;7.456;2023-11-21T04:00:08;24.17;;;6.72;;
22916;SDS011;11624;53.250;7.456;2023-11-21T04:02:37;27.95;;;6.03;;
22916;SDS011;11624;53.250;7.456;2023-11-21T04:05:07;24.13;;;6.82;;
22916;SDS011;11624;53.250;7.456;2023-11-21T04:07:36;23.85;;;6.03;;
22916;SDS011;11624;53.250;7.456;2023-11-21T04:10:05;20.70;;;5.75;;
22916;SDS011;11624;53.250;7.456;2023-11-21T04:12:36;19.58;;;5.65;;
22916;SDS011;11624;53.250;7.456;2023-11-21T04:15:04;18.63;;;5.65;;
22916;SDS011;11624;53.250;7.456;2023-11-21T04:17:35;22.35;;;6.63;;
22916;SDS011;11624;53.250;7.456;2023-11-21T04:20:04;20.23;;;6.32;;
22916;SDS011;11624;53.250;7.456;2023-11-21T04:22:40;25.63;;;6.97;;
22916;SDS011;11624;53.250;7.456;2023-11-21T04:25:11;22.92;;;7.18;;
22916;SDS011;11624;53.250;7.456;2023-11-21T04:27:42;21.27;;;7.30;;
22916;SDS011;11624;53.250;7.456;2023-11-21T04:30:13;27.48;;;8.00;;
22916;SDS011;11624;53.250;7.456;2023-11-21T04:32:42;19.95;;;7.35;;
22916;SDS011;11624;53.250;7.456;2023-11-21T04:35:10;24.17;;;7.68;;
22916;SDS011;11624;53.250;7.456;2023-11-21T04:37:40;22.13;;;8.07;;
22916;SDS011;11624;53.250;7.456;2023-11-21T04:40:09;27.92;;;8.30;;
22916;SDS011;11624;53.250;7.456;2023-11-21T04:42:38;26.92;;;8.95;;
22916;SDS011;11624;53.250;7.456;2023-11-21T04:45:07;30.55;;;8.98;;
22916;SDS011;11624;53.250;7.456;2023-11-21T04:47:39;29.83;;;8.90;;
22916;SDS011;11624;53.250;7.456;2023-11-21T04:50:08;29.88;;;8.88;;
22916;SDS011;11624;53.250;7.456;2023-11-21T04:52:37;25.42;;;8.45;;
22916;SDS011;11624;53.250;7.456;2023-11-21T04:55:07;28.92;;;8.95;;
22916;SDS011;11624;53.250;7.456;2023-11-21T04:57:37;28.52;;;9.00;;
22916;SDS011;11624;53.250;7.456;2023-11-21T05:00:09;25.80;;;8.65;;
22916;SDS011;11624;53.250;7.456;2023-11-21T05:02:39;32.58;;;8.90;;
22916;SDS011;11624;53.250;7.456;2023-11-21T05:05:09;31.52;;;9.90;;
22916;SDS011;11624;53.250;7.456;2023-11-21T05:07:38;33.28;;;10.35;;
22916;SDS011;11624;53.250;7.456;2023-11-21T05:10:09;34.38;;;11.82;;
22916;SDS011;11624;53.250;7.456;2023-11-21T05:12:39;38.00;;;12.07;;
22916;SDS011;11624;53.250;7.456;2023-11-21T05:15:08;41.65;;;13.45;;
22916;SDS011;11624;53.250;7.456;2023-11-21T05:17:37;40.80;;;13.20;;
22916;SDS011;11624;53.250;7.456;2023-11-21T05:20:08;47.00;;;13.15;;
22916;SDS011;11624;53.250;7.456;2023-11-21T05:22:38;44.20;;;13.27;;
22916;SDS011;11624;53.250;7.456;2023-11-21T05:25:10;42.55;;;12.60;;
22916;SDS011;11624;53.250;7.456;2023-11-21T05:27:39;44.17;;;12.85;;
22916;SDS011;11624;53.250;7.456;2023-11-21T05:30:08;40.00;;;13.10;;
22916;SDS011;11624;53.250;7.456;2023-11-21T05:32:38;34.92;;;11.85;;
22916;SDS011;11624;53.250;7.456;2023-11-21T05:35:09;35.95;;;11.55;;
22916;SDS011;11624;53.250;7.456;2023-11-21T05:37:43;34.05;;;12.10;;
22916;SDS011;11624;53.250;7.456;2023-11-21T05:40:14;37.28;;;12.32;;
22916;SDS011;11624;53.250;7.456;2023-11-21T05:42:43;35.30;;;13.40;;
22916;SDS011;11624;53.250;7.456;2023-11-21T05:45:12;37.05;;;12.82;;
22916;SDS011;11624;53.250;7.456;2023-11-21T05:47:41;39.15;;;13.48;;
22916;SDS011;11624;53.250;7.456;2023-11-21T05:50:10;34.45;;;12.85;;
22916;SDS011;11624;53.250;7.456;2023-11-21T05:52:41;33.42;;;12.10;;
22916;SDS011;11624;53.250;7.456;2023-11-21T05:55:10;33.17;;;11.70;;
22916;SDS011;11624;53.250;7.456;2023-11-21T05:57:41;34.53;;;12.75;;
22916;SDS011;11624;53.250;7.456;2023-11-21T06:00:11;31.80;;;12.23;;
22916;SDS011;11624;53.250;7.456;2023-11-21T06:02:46;37.53;;;13.07;;
22916;SDS011;11624;53.250;7.456;2023-11-21T06:05:17;33.40;;;12.10;;
22916;SDS011;11624;53.250;7.456;2023-11-21T06:07:46;33.10;;;12.70;;
22916;SDS011;11624;53.250;7.456;2023-11-21T06:10:15;31.88;;;12.63;;
22916;SDS011;11624;53.250;7.456;2023-11-21T06:12:47;39.80;;;13.20;;
22916;SDS011;11624;53.250;7.456;2023-11-21T06:15:15;32.78;;;13.55;;
22916;SDS011;11624;53.250;7.456;2023-11-21T06:17:46;31.35;;;13.45;;
22916;SDS011;11624;53.250;7.456;2023-11-21T06:20:19;29.40;;;12.68;;
22916;SDS011;11624;53.250;7.456;2023-11-21T06:22:48;27.45;;;11.95;;
22916;SDS011;11624;53.250;7.456;2023-11-21T06:25:17;27.70;;;11.98;;
22916;SDS011;11624;53.250;7.456;2023-11-21T06:27:48;32.17;;;12.95;;
22916;SDS011;11624;53.250;7.456;2023-11-21T06:30:20;29.52;;;13.07;;
22916;SDS011;11624;53.250;7.456;2023-11-21T06:32:50;29.45;;;12.57;;
22916;SDS011;11624;53.250;7.456;2023-11-21T06:35:20;28.98;;;13.02;;
22916;SDS011;11624;53.250;7.456;2023-11-21T06:37:49;25.63;;;12.43;;
22916;SDS011;11624;53.250;7.456;2023-11-21T06:40:18;31.00;;;12.77;;
22916;SDS011;11624;53.250;7.456;2023-11-21T06:42:49;29.38;;;13.35;;
22916;SDS011;11624;53.250;7.456;2023-11-21T06:45:18;27.52;;;12.68;;
22916;SDS011;11624;53.250;7.456;2023-11-21T06:47:48;30.80;;;13.27;;
22916;SDS011;11624;53.250;7.456;2023-11-21T06:50:17;26.58;;;12.85;;
22916;SDS011;11624;53.250;7.456;2023-11-21T06:52:45;27.92;;;13.15;;
22916;SDS011;11624;53.250;7.456;2023-11-21T06:55:14;27.85;;;13.23;;
22916;SDS011;11624;53.250;7.456;2023-11-21T06:57:43;26.42;;;12.45;;
22916;SDS011;11624;53.250;7.456;2023-11-21T07:00:13;25.05;;;12.52;;
22916;SDS011;11624;53.250;7.456;2023-11-21T07:02:45;27.08;;;12.63;;
22916;SDS011;11624;53.250;7.456;2023-11-21T07:05:13;26.58;;;12.55;;
22916;SDS011;11624;53.250;7.456;2023-11-21T07:07:47;30.33;;;12.75;;
22916;SDS011;11624;53.250;7.456;2023-11-21T07:10:16;29.60;;;12.75;;
22916;SDS011;11624;53.250;7.456;2023-11-21T07:12:44;29.02;;;14.07;;
22916;SDS011;11624;53.250;7.456;2023-11-21T07:15:14;27.98;;;12.77;;
22916;SDS011;11624;53.250;7.456;2023-11-21T07:17:43;30.70;;;12.40;;
22916;SDS011;11624;53.250;7.456;2023-11-21T07:20:11;28.48;;;11.98;;
22916;SDS011;11624;53.250;7.456;2023-11-21T07:22:40;27.52;;;12.30;;
22916;SDS011;11624;53.250;7.456;2023-11-21T07:25:08;27.48;;;12.27;;
22916;SDS011;11624;53.250;7.456;2023-11-21T07:27:37;26.58;;;11.48;;
22916;SDS011;11624;53.250;7.456;2023-11-21T07:30:05;28.17;;;11.73;;
22916;SDS011;11624;53.250;7.456;2023-11-21T07:32:38;30.90;;;12.00;;
22916;SDS011;11624;53.250;7.456;2023-11-21T07:35:08;27.63;;;11.40;;
22916;SDS011;11624;53.250;7.456;2023-11-21T07:37:37;30.95;;;11.90;;
22916;SDS011;11624;53.250;7.456;2023-11-21T07:40:06;32.08;;;12.57;;
22916;SDS011;11624;53.250;7.456;2023-11-21T07:42:38;25.83;;;11.00;;
22916;SDS011;11624;53.250;7.456;2023-11-21T07:45:07;27.73;;;11.20;;
22916;SDS011;11624;53.250;7.456;2023-11-21T07:47:37;25.20;;;10.95;;
22916;SDS011;11624;53.250;7.456;2023-11-21T07:50:07;25.23;;;11.18;;
22916;SDS011;11624;53.250;7.456;2023-11-21T07:52:36;28.77;;;11.45;;
22916;SDS011;11624;53.250;7.456;2023-11-21T07:55:05;26.17;;;11.85;;
22916;SDS011;11624;53.250;7.456;2023-11-21T07:57:34;25.67;;;11.02;;
22916;SDS011;11624;53.250;7.456;2023-11-21T08:00:03;25.95;;;11.05;;
22916;SDS011;11624;53.250;7.456;2023-11-21T08:02:39;27.95;;;10.50;;
22916;SDS011;11624;53.250;7.456;2023-11-21T08:05:09;26.23;;;10.82;;
22916;SDS011;11624;53.250;7.456;2023-11-21T08:07:50;26.00;;;10.73;;
22916;SDS011;11624;53.250;7.456;2023-11-21T08:10:19;21.50;;;9.05;;
22916;SDS011;11624;53.250;7.456;2023-11-21T08:12:54;22.88;;;9.98;;
22916;SDS011;11624;53.250;7.456;2023-11-21T08:15:23;23.88;;;9.65;;
22916;SDS011;11624;53.250;7.456;2023-11-21T08:17:58;20.60;;;9.23;;
22916;SDS011;11624;53.250;7.456;2023-11-21T08:20:26;20.70;;;8.93;;
22916;SDS011;11624;53.250;7.456;2023-11-21T08:22:55;19.38;;;8.20;;
22916;SDS011;11624;53.250;7.456;2023-11-21T08:25:24;19.95;;;8.70;;
22916;SDS011;11624;53.250;7.456;2023-11-21T08:27:52;22.25;;;8.80;;
22916;SDS011;11624;53.250;7.456;2023-11-21T08:30:20;18.83;;;7.93;;
22916;SDS011;11624;53.250;7.456;2023-11-21T08:32:50;19.00;;;8.00;;
22916;SDS011;11624;53.250;7.456;2023-11-21T08:35:21;19.23;;;7.90;;
22916;SDS011;11624;53.250;7.456;2023-11-21T08:37:50;19.40;;;8.18;;
22916;SDS011;11624;53.250;7.456;2023-11-21T08:40:19;20.67;;;7.88;;
22916;SDS011;11624;53.250;7.456;2023-11-21T08:42:48;17.48;;;7.57;;
22916;SDS011;11624;53.250;7.456;2023-11-21T08:45:18;17.83;;;6.95;;
22916;SDS011;11624;53.250;7.456;2023-11-21T08:47:46;17.92;;;7.55;;
22916;SDS011;11624;53.250;7.456;2023-11-21T08:50:15;19.30;;;7.65;;
22916;SDS011;11624;53.250;7.456;2023-11-21T08:52:46;16.00;;;6.53;;
22916;SDS011;11624;53.250;7.456;2023-11-21T08:55:15;17.75;;;7.35;;
22916;SDS011;11624;53.250;7.456;2023-11-21T08:57:43;15.98;;;6.95;;
22916;SDS011;11624;53.250;7.456;2023-11-21T09:00:13;18.65;;;7.35;;
22916;SDS011;11624;53.250;7.456;2023-11-21T09:02:44;16.15;;;7.13;;
22916;SDS011;11624;53.250;7.456;2023-11-21T09:05:13;18.38;;;6.97;;
22916;SDS011;11624;53.250;7.456;2023-11-21T09:07:43;20.35;;;6.97;;
22916;SDS011;11624;53.250;7.456;2023-11-21T09:10:14;17.55;;;7.40;;
22916;SDS011;11624;53.250;7.456;2023-11-21T09:12:42;16.40;;;6.70;;
22916;SDS011;11624;53.250;7.456;2023-11-21T09:15:12;16.23;;;6.80;;
22916;SDS011;11624;53.250;7.456;2023-11-21T09:17:41;15.18;;;6.65;;
22916;SDS011;11624;53.250;7.456;2023-11-21T09:20:11;17.85;;;7.38;;
22916;SDS011;11624;53.250;7.456;2023-11-21T09:22:41;16.23;;;6.70;;
22916;SDS011;11624;53.250;7.456;2023-11-21T09:25:11;18.13;;;7.28;;
22916;SDS011;11624;53.250;7.456;2023-11-21T09:27:41;19.02;;;6.93;;
22916;SDS011;11624;53.250;7.456;2023-11-21T09:30:10;16.90;;;6.70;;
22916;SDS011;11624;53.250;7.456;2023-11-21T09:32:41;15.30;;;6.30;;
22916;SDS011;11624;53.250;7.456;2023-11-21T09:35:12;17.42;;;6.90;;
22916;SDS011;11624;53.250;7.456;2023-11-21T09:37:42;17.27;;;7.15;;
22916;SDS011;11624;53.250;7.456;2023-11-21T09:40:17;18.83;;;7.25;;
22916;SDS011;11624;53.250;7.456;2023-11-21T09:42:51;18.38;;;7.18;;
22916;SDS011;11624;53.250;7.456;2023-11-21T09:45:24;17.38;;;7.13;;
22916;SDS011;11624;53.250;7.456;2023-11-21T09:47:54;16.65;;;6.85;;
22916;SDS011;11624;53.250;7.456;2023-11-21T09:50:24;19.88;;;7.32;;
22916;SDS011;11624;53.250;7.456;2023-11-21T09:52:55;17.73;;;7.88;;
22916;SDS011;11624;53.250;7.456;2023-11-21T09:55:29;16.73;;;7.07;;
22916;SDS011;11624;53.250;7.456;2023-11-21T09:58:02;16.95;;;7.05;;
22916;SDS011;11624;53.250;7.456;2023-11-21T10:00:34;17.65;;;6.85;;
22916;SDS011;11624;53.250;7.456;2023-11-21T10:03:03;17.20;;;7.13;;
22916;SDS011;11624;53.250;7.456;2023-11-21T10:05:31;16.35;;;6.85;;
22916;SDS011;11624;53.250;7.456;2023-11-21T10:08:01;16.85;;;6.55;;
22916;SDS011;11624;53.250;7.456;2023-11-21T10:10:34;16.92;;;7.28;;
22916;SDS011;11624;53.250;7.456;2023-11-21T10:13:04;17.60;;;7.47;;
22916;SDS011;11624;53.250;7.456;2023-11-21T10:15:34;18.58;;;6.68;;
22916;SDS011;11624;53.250;7.456;2023-11-21T10:18:03;17.20;;;6.53;;
22916;SDS011;11624;53.250;7.456;2023-11-21T10:20:34;17.65;;;7.03;;
22916;SDS011;11624;53.250;7.456;2023-11-21T10:23:04;17.17;;;6.07;;
22916;SDS011;11624;53.250;7.456;2023-11-21T10:25:39;15.80;;;6.35;;
22916;SDS011;11624;53.250;7.456;2023-11-21T10:28:07;15.77;;;6.53;;
22916;SDS011;11624;53.250;7.456;2023-11-21T10:30:38;15.65;;;6.28;;
22916;SDS011;11624;53.250;7.456;2023-11-21T10:33:07;18.58;;;7.15;;
22916;SDS011;11624;53.250;7.456;2023-11-21T10:35:45;15.10;;;6.68;;
22916;SDS011;11624;53.250;7.456;2023-11-21T10:38:17;15.50;;;6.35;;
22916;SDS011;11624;53.250;7.456;2023-11-21T10:40:49;17.90;;;6.45;;
22916;SDS011;11624;53.250;7.456;2023-11-21T10:43:18;17.27;;;7.10;;
22916;SDS011;11624;53.250;7.456;2023-11-21T10:45:47;18.45;;;6.75;;
22916;SDS011;11624;53.250;7.456;2023-11-21T10:48:15;20.77;;;7.22;;
22916;SDS011;11624;53.250;7.456;2023-11-21T10:50:46;18.20;;;6.93;;
22916;SDS011;11624;53.250;7.456;2023-11-21T10:53:15;17.27;;;7.32;;
22916;SDS011;11624;53.250;7.456;2023-11-21T10:55:44;17.60;;;7.43;;
22916;SDS011;11624;53.250;7.456;2023-11-21T10:58:14;17.10;;;7.28;;
22916;SDS011;11624;53.250;7.456;2023-11-21T11:00:43;16.08;;;7.07;;
22916;SDS011;11624;53.250;7.456;2023-11-21T11:03:13;16.88;;;7.00;;
22916;SDS011;11624;53.250;7.456;2023-11-21T11:05:43;16.35;;;6.55;;
22916;SDS011;11624;53.250;7.456;2023-11-21T11:08:20;16.88;;;6.97;;
22916;SDS011;11624;53.250;7.456;2023-11-21T11:10:54;16.00;;;6.80;;
22916;SDS011;11624;53.250;7.456;2023-11-21T11:13:24;18.20;;;7.80;;
22916;SDS011;11624;53.250;7.456;2023-11-21T11:15:55;18.20;;;7.13;;
22916;SDS011;11624;53.250;7.456;2023-11-21T11:18:28;15.65;;;6.95;;
22916;SDS011;11624;53.250;7.456;2023-11-21T11:20:59;14.18;;;5.53;;
22916;SDS011;11624;53.250;7.456;2023-11-21T11:23:45;15.98;;;6.53;;
22916;SDS011;11624;53.250;7.456;2023-11-21T11:26:25;16.60;;;6.25;;
22916;SDS011;11624;53.250;7.456;2023-11-21T11:29:03;15.07;;;5.72;;
22916;SDS011;11624;53.250;7.456;2023-11-21T11:31:45;15.05;;;6.32;;
22916;SDS011;11624;53.250;7.456;2023-11-21T11:34:23;14.52;;;6.20;;
22916;SDS011;11624;53.250;7.456;2023-11-21T11:36:59;14.20;;;5.88;;
22916;SDS011;11624;53.250;7.456;2023-11-21T11:39:30;16.98;;;5.95;;
22916;SDS011;11624;53.250;7.456;2023-11-21T11:42:03;16.00;;;6.03;;
22916;SDS011;11624;53.250;7.456;2023-11-21T11:47:20;14.60;;;5.82;;
22916;SDS011;11624;53.250;7.456;2023-11-21T11:49:55;15.27;;;6.10;;
22916;SDS011;11624;53.250;7.456;2023-11-21T11:52:40;15.93;;;5.88;;
22916;SDS011;11624;53.250;7.456;2023-11-21T11:55:10;17.00;;;6.15;;
22916;SDS011;11624;53.250;7.456;2023-11-21T11:57:41;13.73;;;5.68;;
22916;SDS011;11624;53.250;7.456;2023-11-21T12:00:12;16.02;;;6.72;;
22916;SDS011;11624;53.250;7.456;2023-11-21T12:02:47;13.23;;;5.13;;
22916;SDS011;11624;53.250;7.456;2023-11-21T12:05:16;13.60;;;4.93;;
22916;SDS011;11624;53.250;7.456;2023-11-21T12:07:47;12.52;;;4.95;;
22916;SDS011;11624;53.250;7.456;2023-11-21T12:10:21;14.35;;;4.90;;
22916;SDS011;11624;53.250;7.456;2023-11-21T12:12:53;12.10;;;4.80;;
22916;SDS011;11624;53.250;7.456;2023-11-21T12:15:24;13.73;;;4.85;;
22916;SDS011;11624;53.250;7.456;2023-11-21T12:17:55;13.63;;;5.03;;
22916;SDS011;11624;53.250;7.456;2023-11-21T12:20:25;11.43;;;4.18;;
22916;SDS011;11624;53.250;7.456;2023-11-21T12:22:55;12.73;;;4.60;;
22916;SDS011;11624;53.250;7.456;2023-11-21T12:25:26;14.15;;;4.72;;
22916;SDS011;11624;53.250;7.456;2023-11-21T12:27:56;12.55;;;4.53;;
22916;SDS011;11624;53.250;7.456;2023-11-21T12:30:27;12.90;;;4.30;;
22916;SDS011;11624;53.250;7.456;2023-11-21T12:32:58;12.15;;;4.57;;
22916;SDS011;11624;53.250;7.456;2023-11-21T12:35:33;11.82;;;4.55;;
22916;SDS011;11624;53.250;7.456;2023-11-21T12:38:03;15.27;;;4.55;;
22916;SDS011;11624;53.250;7.456;2023-11-21T12:40:32;11.77;;;4.22;;
22916;SDS011;11624;53.250;7.456;2023-11-21T12:43:01;14.40;;;4.20;;
22916;SDS011;11624;53.250;7.456;2023-11-21T12:45:33;13.02;;;4.13;;
22916;SDS011;11624;53.250;7.456;2023-11-21T12:48:02;14.85;;;4.70;;
22916;SDS011;11624;53.250;7.456;2023-11-21T12:50:35;11.23;;;4.47;;
22916;SDS011;11624;53.250;7.456;2023-11-21T12:53:05;11.63;;;4.20;;
22916;SDS011;11624;53.250;7.456;2023-11-21T12:55:35;11.80;;;4.50;;
22916;SDS011;11624;53.250;7.456;2023-11-21T12:58:05;12.23;;;4.20;;
22916;SDS011;11624;53.250;7.456;2023-11-21T13:00:40;12.73;;;4.18;;
22916;SDS011;11624;53.250;7.456;2023-11-21T13:03:11;12.57;;;4.82;;
22916;SDS011;11624;53.250;7.456;2023-11-21T13:05:44;12.57;;;4.57;;
22916;SDS011;11624;53.250;7.456;2023-11-21T13:08:19;13.35;;;4.43;;
22916;SDS011;11624;53.250;7.456;2023-11-21T13:10:51;11.98;;;4.63;;
22916;SDS011;11624;53.250;7.456;2023-11-21T13:13:22;11.55;;;4.20;;
22916;SDS011;11624;53.250;7.456;2023-11-21T13:15:53;13.27;;;4.47;;
22916;SDS011;11624;53.250;7.456;2023-11-21T13:18:24;10.82;;;4.05;;
22916;SDS011;11624;53.250;7.456;2023-11-21T13:20:54;10.55;;;3.90;;
22916;SDS011;11624;53.250;7.456;2023-11-21T13:23:23;13.38;;;4.05;;
22916;SDS011;11624;53.250;7.456;2023-11-21T13:25:52;11.45;;;3.88;;
22916;SDS011;11624;53.250;7.456;2023-11-21T13:28:30;9.15;;;3.60;;
22916;SDS011;11624;53.250;7.456;2023-11-21T13:31:02;12.88;;;4.10;;
22916;SDS011;11624;53.250;7.456;2023-11-21T13:33:37;9.55;;;3.70;;
22916;SDS011;11624;53.250;7.456;2023-11-21T13:36:08;11.75;;;3.92;;
22916;SDS011;11624;53.250;7.456;2023-11-21T13:38:37;11.52;;;4.10;;
22916;SDS011;11624;53.250;7.456;2023-11-21T13:41:10;11.30;;;4.13;;
22916;SDS011;11624;53.250;7.456;2023-11-21T13:43:41;10.05;;;3.38;;
22916;SDS011;11624;53.250;7.456;2023-11-21T13:46:18;11.27;;;3.88;;
22916;SDS011;11624;53.250;7.456;2023-11-21T13:48:50;11.68;;;4.03;;
22916;SDS011;11624;53.250;7.456;2023-11-21T13:51:23;14.82;;;4.40;;
22916;SDS011;11624;53.250;7.456;2023-11-21T13:54:03;11.02;;;3.70;;
22916;SDS011;11624;53.250;7.456;2023-11-21T13:56:36;13.20;;;3.80;;
22916;SDS011;11624;53.250;7.456;2023-11-21T13:59:06;14.98;;;4.18;;
22916;SDS011;11624;53.250;7.456;2023-11-21T14:01:46;11.32;;;4.20;;
22916;SDS011;11624;53.250;7.456;2023-11-21T14:04:26;10.65;;;4.30;;
22916;SDS011;11624;53.250;7.456;2023-11-21T14:07:20;10.27;;;4.03;;
22916;SDS011;11624;53.250;7.456;2023-11-21T14:09:57;10.27;;;3.72;;
22916;SDS011;11624;53.250;7.456;2023-11-21T14:12:25;10.70;;;3.80;;
22916;SDS011;11624;53.250;7.456;2023-11-21T14:14:55;9.55;;;3.83;;
22916;SDS011;11624;53.250;7.456;2023-11-21T14:17:25;9.43;;;3.70;;
22916;SDS011;11624;53.250;7.456;2023-11-21T14:19:54;9.65;;;3.72;;
22916;SDS011;11624;53.250;7.456;2023-11-21T14:22:23;13.05;;;4.20;;
22916;SDS011;11624;53.250;7.456;2023-11-21T14:24:52;11.95;;;4.00;;
22916;SDS011;11624;53.250;7.456;2023-11-21T14:27:22;11.23;;;3.67;;
22916;SDS011;11624;53.250;7.456;2023-11-21T14:29:52;12.20;;;3.80;;
22916;SDS011;11624;53.250;7.456;2023-11-21T14:32:20;12.13;;;4.15;;
22916;SDS011;11624;53.250;7.456;2023-11-21T14:34:50;10.68;;;4.15;;
22916;SDS011;11624;53.250;7.456;2023-11-21T14:37:18;11.43;;;4.30;;
22916;SDS011;11624;53.250;7.456;2023-11-21T14:39:47;12.60;;;4.10;;
22916;SDS011;11624;53.250;7.456;2023-11-21T14:42:16;13.85;;;4.68;;
22916;SDS011;11624;53.250;7.456;2023-11-21T14:44:51;12.68;;;4.15;;
22916;SDS011;11624;53.250;7.456;2023-11-21T14:47:21;11.50;;;4.22;;
22916;SDS011;11624;53.250;7.456;2023-11-21T14:49:55;10.68;;;4.25;;
22916;SDS011;11624;53.250;7.456;2023-11-21T14:52:26;12.82;;;4.10;;